Time;durP1;ratioP1;P1;durP2;ratioP2;P2;SDS_P1;SDS_P2;PMS_P1;PMS_P2;Temp;Humidity;BMP_temperature;BMP_pressure;BME280_temperature;BME280_humidity;BME280_pressure;Samples;Min_cycle;Max_cycle;Signal;HPM_P1;HPM_P2
2022/01/27 00:00:45;;;;;;;70.95;21.17;;;;;;;1.88;100.00;98698.44;5011131;28;20046;-79
2022/01/27 00:03:30;;;;;;;67.47;20.20;;;;;;;1.80;100.00;98698.00;5011873;28;20506;-81
2022/01/27 00:06:03;;;;;;;71.63;21.33;;;;;;;1.99;100.00;98693.38;5013213;28;20140;-80
2022/01/27 00:08:38;;;;;;;66.97;20.15;;;;;;;1.89;100.00;98689.41;5010647;28;20053;-80
2022/01/27 00:11:11;;;;;;;69.22;20.52;;;;;;;1.92;100.00;98687.31;5012321;28;20510;-78
2022/01/27 00:13:47;;;;;;;75.88;21.65;;;;;;;1.98;100.00;98691.72;5008845;28;20434;-80
2022/01/27 00:16:24;;;;;;;69.18;20.70;;;;;;;1.90;100.00;98706.25;5014560;28;20049;-80
2022/01/27 00:18:53;;;;;;;64.65;20.02;;;;;;;1.85;100.00;98701.59;5011246;28;20049;-80
2022/01/27 00:21:22;;;;;;;67.43;19.95;;;;;;;1.89;100.00;98699.25;5012976;28;20073;-81
2022/01/27 00:23:48;;;;;;;72.90;21.60;;;;;;;1.96;100.00;98709.84;5011769;28;20107;-81
2022/01/27 00:26:17;;;;;;;79.82;22.98;;;;;;;1.95;100.00;98714.38;5012890;28;20691;-80
2022/01/27 00:28:45;;;;;;;63.65;21.20;;;;;;;1.92;100.00;98681.97;5009900;28;20514;-79
2022/01/27 00:31:13;;;;;;;82.75;22.48;;;;;;;2.00;100.00;98693.13;5012589;28;20053;-79
2022/01/27 00:33:42;;;;;;;70.68;21.00;;;;;;;1.97;100.00;98674.06;5013094;28;20053;-79
2022/01/27 00:36:09;;;;;;;73.10;20.98;;;;;;;1.88;100.00;98686.97;5013432;28;20052;-79
2022/01/27 00:38:36;;;;;;;77.85;21.98;;;;;;;1.81;100.00;98670.25;5011746;28;20105;-80
2022/01/27 00:41:03;;;;;;;78.88;23.15;;;;;;;1.86;100.00;98683.72;5012132;28;20045;-80
2022/01/27 00:43:31;;;;;;;82.88;23.25;;;;;;;1.78;100.00;98673.41;5011531;28;20135;-80
2022/01/27 00:45:58;;;;;;;74.65;23.50;;;;;;;1.79;100.00;98678.50;5012013;28;20081;-80
2022/01/27 00:48:24;;;;;;;86.30;24.52;;;;;;;1.78;100.00;98657.41;5013148;28;20115;-81
2022/01/27 00:50:57;;;;;;;72.35;22.17;;;;;;;1.80;100.00;98679.31;5012212;28;20046;-80
2022/01/27 00:56:43;;;;;;;82.97;23.92;;;;;;;1.83;100.00;98646.81;5007818;28;20081;-78
2022/01/27 00:59:25;;;;;;;86.13;25.77;;;;;;;1.75;100.00;98649.84;5008240;28;20461;-79
2022/01/27 01:02:10;;;;;;;83.63;24.27;;;;;;;1.79;100.00;98664.34;5011096;28;20502;-78
2022/01/27 01:04:40;;;;;;;96.22;25.00;;;;;;;1.74;100.00;98669.56;5010829;28;20722;-80
2022/01/27 01:07:09;;;;;;;91.30;26.33;;;;;;;1.61;100.00;98659.94;5012427;28;20085;-81
2022/01/27 01:14:43;;;;;;;93.30;25.70;;;;;;;1.73;100.00;98662.63;5008383;28;20104;-80
2022/01/27 01:33:05;;;;;;;106.15;31.38;;;;;;;1.72;100.00;98631.63;5011405;28;20820;-79
2022/01/27 01:36:02;;;;;;;121.10;30.90;;;;;;;1.89;100.00;98630.66;5010111;28;20108;-81
2022/01/27 01:38:21;;;;;;;128.93;32.63;;;;;;;1.89;100.00;98620.00;5010671;28;20580;-79
2022/01/27 01:40:51;;;;;;;127.45;32.13;;;;;;;1.85;100.00;98629.53;5011377;28;20049;-81
2022/01/27 01:43:20;;;;;;;130.15;33.28;;;;;;;1.88;100.00;98621.03;5009442;28;20208;-81
2022/01/27 01:45:47;;;;;;;129.93;32.15;;;;;;;1.85;100.00;98607.34;5011164;28;20077;-80
2022/01/27 01:48:16;;;;;;;130.93;33.03;;;;;;;1.84;100.00;98625.22;5012086;28;20560;-81
2022/01/27 01:50:43;;;;;;;122.70;33.25;;;;;;;1.74;100.00;98611.66;5012419;28;20045;-80
2022/01/27 01:53:10;;;;;;;140.95;32.90;;;;;;;1.92;100.00;98604.53;5011347;28;20764;-79
2022/01/27 01:55:37;;;;;;;118.60;30.98;;;;;;;1.81;100.00;98611.53;5011596;28;20149;-79
2022/01/27 01:58:03;;;;;;;116.50;30.90;;;;;;;1.84;100.00;98613.72;5013872;28;20050;-80
2022/01/27 02:00:30;;;;;;;112.28;30.05;;;;;;;1.84;100.00;98598.53;5011762;28;20049;-80
2022/01/27 02:02:57;;;;;;;119.18;31.77;;;;;;;1.79;100.00;98598.41;5015970;28;20050;-79
2022/01/27 02:05:28;;;;;;;116.25;30.98;;;;;;;1.87;100.00;98595.41;5031680;28;20057;-80
2022/01/27 02:19:23;;;;;;;118.35;29.27;;;;;;;1.90;100.00;98580.75;5012297;28;20054;-81
2022/01/27 02:21:55;;;;;;;119.53;31.25;;;;;;;1.96;100.00;98582.50;5012154;28;20046;-81
2022/01/27 02:24:24;;;;;;;108.15;29.45;;;;;;;1.77;100.00;98557.81;5014891;28;20050;-80
2022/01/27 02:26:51;;;;;;;111.13;28.67;;;;;;;1.96;100.00;98538.97;5015021;28;20113;-79
2022/01/27 02:29:20;;;;;;;104.60;27.85;;;;;;;1.84;100.00;98547.81;5012265;28;20131;-79
2022/01/27 02:31:48;;;;;;;111.75;28.75;;;;;;;1.98;100.00;98543.00;5021456;28;20493;-81
2022/01/27 02:34:14;;;;;;;106.45;28.50;;;;;;;1.97;100.00;98561.94;5022295;28;20046;-82
2022/01/27 02:36:41;;;;;;;101.53;27.42;;;;;;;1.91;100.00;98550.31;5024691;28;20058;-78
2022/01/27 02:39:09;;;;;;;105.72;29.00;;;;;;;2.01;100.00;98525.72;5021809;28;20053;-80
2022/01/27 02:41:45;;;;;;;107.40;28.30;;;;;;;2.01;100.00;98539.06;5021816;28;20053;-80
2022/01/27 02:44:34;;;;;;;95.65;26.33;;;;;;;2.13;100.00;98537.16;5017150;28;20105;-81
2022/01/27 02:47:01;;;;;;;100.47;25.65;;;;;;;1.97;100.00;98525.34;5014673;28;20753;-80
2022/01/27 02:49:28;;;;;;;100.13;26.98;;;;;;;2.15;100.00;98519.00;5013222;28;20445;-79
2022/01/27 02:51:55;;;;;;;100.38;27.27;;;;;;;2.18;100.00;98515.88;5013416;28;20046;-82
2022/01/27 02:54:21;;;;;;;105.60;28.10;;;;;;;2.15;100.00;98503.00;5013947;28;20574;-80
2022/01/27 02:56:49;;;;;;;101.38;26.02;;;;;;;2.14;100.00;98504.06;5013293;28;20054;-81
2022/01/27 02:59:20;;;;;;;109.30;26.48;;;;;;;2.25;100.00;98493.31;5010787;28;20073;-80
2022/01/27 03:01:49;;;;;;;101.00;27.02;;;;;;;2.20;100.00;98479.03;5016805;28;20054;-79
2022/01/27 03:04:16;;;;;;;102.25;26.73;;;;;;;2.31;100.00;98468.31;5021956;28;20046;-80
2022/01/27 03:06:45;;;;;;;95.93;26.85;;;;;;;2.16;100.00;98465.38;5020755;28;20085;-80
2022/01/27 03:09:12;;;;;;;102.40;28.33;;;;;;;2.28;100.00;98463.44;5014408;28;20061;-78
2022/01/27 03:11:45;;;;;;;94.20;27.27;;;;;;;1.95;100.00;98471.41;5015027;28;20061;-80
2022/01/27 03:14:18;;;;;;;88.15;26.30;;;;;;;1.94;100.00;98455.63;5011384;28;20632;-79
2022/01/27 03:16:45;;;;;;;98.15;26.52;;;;;;;2.23;100.00;98443.84;5013644;28;20457;-79
2022/01/27 03:19:12;;;;;;;102.82;27.02;;;;;;;2.29;100.00;98425.00;5014365;28;20054;-80
2022/01/27 03:21:38;;;;;;;99.95;27.20;;;;;;;2.40;100.00;98420.63;5014392;28;20056;-80
2022/01/27 03:24:06;;;;;;;97.72;26.15;;;;;;;2.32;100.00;98429.06;5014699;28;20057;-79
2022/01/27 03:26:33;;;;;;;91.35;25.52;;;;;;;2.40;100.00;98424.09;5014974;28;20056;-80
2022/01/27 03:29:00;;;;;;;89.60;25.50;;;;;;;2.38;100.00;98404.00;5012614;28;20092;-80
2022/01/27 03:31:27;;;;;;;77.35;23.67;;;;;;;2.43;100.00;98425.47;5015027;28;20436;-80
2022/01/27 03:33:54;;;;;;;81.30;22.60;;;;;;;2.14;100.00;98414.03;5014455;28;20053;-79
2022/01/27 03:36:22;;;;;;;73.88;23.05;;;;;;;2.29;100.00;98427.69;5014033;28;20109;-80
2022/01/27 03:38:48;;;;;;;80.05;22.92;;;;;;;2.41;100.00;98424.91;5012528;28;20050;-79
2022/01/27 03:41:20;;;;;;;76.75;22.60;;;;;;;2.01;100.00;98422.38;5014082;28;20069;-79
2022/01/27 03:43:47;;;;;;;77.55;23.33;;;;;;;2.32;100.00;98419.16;5012263;28;20054;-79
2022/01/27 03:46:15;;;;;;;71.50;22.83;;;;;;;2.40;100.00;98426.75;5015633;28;20050;-80
2022/01/27 03:48:43;;;;;;;73.78;22.33;;;;;;;2.35;100.00;98434.69;5014820;28;20037;-80
2022/01/27 03:51:10;;;;;;;62.40;20.45;;;;;;;2.33;100.00;98444.00;5015253;28;20046;-81
2022/01/27 03:53:38;;;;;;;61.33;20.48;;;;;;;2.33;100.00;98438.66;5014237;28;20054;-80
2022/01/27 03:56:05;;;;;;;62.72;20.95;;;;;;;2.35;100.00;98425.88;5013735;28;20050;-80
2022/01/27 03:58:33;;;;;;;56.03;19.02;;;;;;;2.15;100.00;98429.03;5010317;28;20045;-80
2022/01/27 04:01:02;;;;;;;55.85;18.85;;;;;;;1.99;100.00;98408.44;5013233;28;20100;-81
2022/01/27 04:03:36;;;;;;;59.42;19.90;;;;;;;2.25;100.00;98407.00;5012698;28;20088;-80
2022/01/27 04:06:07;;;;;;;49.80;18.05;;;;;;;2.28;100.00;98403.84;5015256;28;20060;-81
2022/01/27 04:08:37;;;;;;;58.45;18.13;;;;;;;2.11;100.00;98395.84;5031638;28;20042;-82
2022/01/27 04:11:08;;;;;;;59.25;18.00;;;;;;;2.11;100.00;98389.69;5034502;28;20050;-81
2022/01/27 04:13:36;;;;;;;43.35;15.63;;;;;;;2.03;100.00;98392.75;5032828;28;20049;-80
2022/01/27 04:16:06;;;;;;;51.03;18.05;;;;;;;2.12;100.00;98383.28;5033682;28;20057;-81
2022/01/27 04:18:32;;;;;;;48.97;17.90;;;;;;;2.13;100.00;98388.41;5017285;28;20061;-81
2022/01/27 04:20:59;;;;;;;49.45;17.00;;;;;;;2.09;100.00;98370.44;5013574;28;20050;-79
2022/01/27 04:23:25;;;;;;;49.45;17.33;;;;;;;2.12;100.00;98373.41;5014226;28;20060;-81
2022/01/27 04:25:52;;;;;;;48.75;17.67;;;;;;;2.17;100.00;98368.16;5024052;28;20057;-80
2022/01/27 04:28:25;;;;;;;46.88;16.40;;;;;;;2.09;100.00;98354.41;5014736;28;20060;-80
2022/01/27 04:30:54;;;;;;;48.58;17.08;;;;;;;2.11;100.00;98360.31;5022233;28;20112;-80
2022/01/27 04:33:27;;;;;;;45.75;16.42;;;;;;;2.12;100.00;98361.91;5019405;28;20054;-79
2022/01/27 04:35:57;;;;;;;40.13;15.55;;;;;;;2.04;100.00;98363.13;5022089;28;20089;-79
2022/01/27 04:38:29;;;;;;;37.50;15.82;;;;;;;2.15;100.00;98348.91;5027995;28;20053;-80
2022/01/27 04:41:09;;;;;;;;;;;;;;;;;;;;;
2022/01/27 04:43:37;;;;;;;41.25;15.93;;;;;;;2.30;100.00;98345.66;5031534;28;20061;-80
2022/01/27 04:48:47;;;;;;;43.58;16.15;;;;;;;2.18;100.00;98336.91;5032706;28;20083;-81
2022/01/27 04:51:14;;;;;;;44.08;16.88;;;;;;;2.37;100.00;98327.59;5031279;28;20041;-81
2022/01/27 04:53:51;;;;;;;39.00;16.20;;;;;;;2.07;100.00;98319.94;5031420;28;20049;-79
2022/01/27 04:56:19;;;;;;;38.90;16.38;;;;;;;1.92;100.00;98322.38;5030069;28;20103;-80
2022/01/27 04:58:51;;;;;;;39.88;14.93;;;;;;;2.14;100.00;98315.22;5029321;28;20060;-80
2022/01/27 05:01:19;;;;;;;37.78;15.45;;;;;;;2.06;100.00;98306.84;5029983;28;20052;-80
2022/01/27 05:03:52;;;;;;;36.75;14.75;;;;;;;2.08;100.00;98304.72;5027562;28;20046;-80
2022/01/27 05:06:18;;;;;;;39.40;15.30;;;;;;;2.11;100.00;98297.03;5013056;28;20442;-80
2022/01/27 05:08:45;;;;;;;39.88;16.67;;;;;;;1.99;100.00;98284.84;5028280;28;20049;-81
2022/01/27 05:11:27;;;;;;;37.60;15.65;;;;;;;2.14;100.00;98285.06;5031603;28;20132;-77
2022/01/27 05:14:03;;;;;;;35.58;15.43;;;;;;;2.05;100.00;98284.66;5028459;28;20111;-79
2022/01/27 05:16:30;;;;;;;34.38;14.48;;;;;;;1.83;100.00;98278.44;5030482;28;20076;-81
2022/01/27 05:18:56;;;;;;;33.63;13.77;;;;;;;1.69;100.00;98259.28;5040297;28;20053;-82
2022/01/27 05:21:26;;;;;;;36.22;14.30;;;;;;;1.98;100.00;98272.53;5041687;28;20052;-80
2022/01/27 05:23:53;;;;;;;34.65;14.65;;;;;;;1.98;100.00;98264.53;5042426;28;20081;-80
2022/01/27 05:26:19;;;;;;;36.22;14.57;;;;;;;1.92;100.00;98252.13;5043326;28;20100;-82
2022/01/27 05:28:46;;;;;;;36.45;14.70;;;;;;;2.29;100.00;98246.03;5052485;28;20033;-83
2022/01/27 05:31:12;;;;;;;31.58;14.20;;;;;;;2.28;100.00;98249.75;5053002;28;20044;-83
2022/01/27 05:33:39;;;;;;;35.42;14.50;;;;;;;2.36;100.00;98248.50;5031653;28;20418;-82
2022/01/27 05:36:06;;;;;;;37.05;14.48;;;;;;;2.14;100.00;98237.78;5031221;28;20056;-80
2022/01/27 05:38:35;;;;;;;31.88;14.35;;;;;;;2.20;100.00;98247.50;5030800;28;20053;-81
2022/01/27 05:41:02;;;;;;;34.08;13.82;;;;;;;1.81;100.00;98259.19;5033198;28;20057;-80
2022/01/27 05:43:28;;;;;;;30.77;12.93;;;;;;;1.83;100.00;98273.13;5030169;28;20116;-80
2022/01/27 05:45:55;;;;;;;33.78;14.98;;;;;;;1.89;100.00;98291.63;5031636;28;20053;-82
2022/01/27 05:48:21;;;;;;;35.10;15.00;;;;;;;1.82;100.00;98288.31;5031806;28;20199;-79
2022/01/27 05:50:48;;;;;;;32.05;13.63;;;;;;;1.89;100.00;98272.13;5032641;28;20412;-81
2022/01/27 05:53:15;;;;;;;32.00;13.95;;;;;;;1.98;100.00;98296.56;5026097;28;20046;-81
2022/01/27 05:55:41;;;;;;;31.05;13.88;;;;;;;1.87;100.00;98300.94;5027830;28;20053;-79
2022/01/27 05:58:08;;;;;;;32.15;14.13;;;;;;;1.93;100.00;98299.97;5025115;28;20099;-80
2022/01/27 06:00:34;;;;;;;35.88;15.15;;;;;;;2.02;100.00;98303.84;5033380;28;20088;-80
2022/01/27 06:03:02;;;;;;;34.97;15.07;;;;;;;1.89;100.00;98298.81;5034595;28;20053;-79
2022/01/27 06:05:28;;;;;;;35.97;15.50;;;;;;;1.76;100.00;98288.47;5034547;28;20438;-79
2022/01/27 06:07:55;;;;;;;34.95;15.48;;;;;;;1.82;100.00;98284.84;5021203;28;20107;-80
2022/01/27 06:10:22;;;;;;;42.47;17.20;;;;;;;2.04;100.00;98298.25;5013960;28;20053;-80
2022/01/27 06:12:51;;;;;;;34.92;15.40;;;;;;;1.79;100.00;98304.00;5015465;28;20046;-79
2022/01/27 06:15:19;;;;;;;37.42;15.45;;;;;;;1.70;100.00;98289.44;5010241;28;20431;-79
2022/01/27 06:17:46;;;;;;;40.95;16.38;;;;;;;1.82;100.00;98304.31;5012469;28;20061;-81
2022/01/27 06:20:14;;;;;;;39.72;17.05;;;;;;;1.94;100.00;98306.13;5014910;28;20050;-80
2022/01/27 06:22:41;;;;;;;38.35;15.88;;;;;;;1.79;100.00;98304.81;5014693;28;20411;-80
2022/01/27 06:25:08;;;;;;;41.83;17.10;;;;;;;1.78;100.00;98292.50;5015508;28;20100;-80
2022/01/27 06:27:35;;;;;;;40.03;17.48;;;;;;;1.86;100.00;98275.28;5012563;28;20049;-79
2022/01/27 06:30:05;;;;;;;33.42;15.07;;;;;;;1.72;100.00;98256.13;5022218;28;20053;-79
2022/01/27 06:32:35;;;;;;;43.72;17.95;;;;;;;1.80;100.00;98231.69;5015479;28;20054;-81
2022/01/27 06:35:03;;;;;;;42.45;18.80;;;;;;;1.77;100.00;98231.38;5023163;28;20453;-79
2022/01/27 06:37:31;;;;;;;43.70;20.05;;;;;;;1.76;100.00;98243.91;5031288;28;20056;-79
2022/01/27 06:39:58;;;;;;;37.30;17.45;;;;;;;1.65;100.00;98239.44;5034220;28;20460;-81
2022/01/27 06:42:25;;;;;;;44.35;18.00;;;;;;;1.59;100.00;98224.44;5013213;28;20058;-81
2022/01/27 06:44:53;;;;;;;40.40;17.38;;;;;;;1.61;100.00;98222.31;5013385;28;20050;-81
2022/01/27 06:47:19;;;;;;;41.25;18.85;;;;;;;1.72;100.00;98223.28;5014203;28;20104;-80
2022/01/27 06:49:46;;;;;;;44.08;18.83;;;;;;;1.67;100.00;98244.56;5013830;28;20430;-80
2022/01/27 06:52:12;;;;;;;46.45;20.42;;;;;;;1.60;100.00;98259.94;5014246;28;20045;-81
2022/01/27 06:54:39;;;;;;;45.20;19.95;;;;;;;1.55;100.00;98259.84;5012828;28;20046;-82
2022/01/27 06:57:06;;;;;;;43.53;19.60;;;;;;;1.64;100.00;98266.38;5014179;28;20084;-79
2022/01/27 06:59:34;;;;;;;43.25;18.13;;;;;;;1.69;100.00;98263.78;5013860;28;20049;-79
2022/01/27 07:02:02;;;;;;;36.28;17.17;;;;;;;1.59;100.00;98251.09;5023317;28;20076;-80
2022/01/27 07:04:29;;;;;;;42.13;18.13;;;;;;;1.70;100.00;98238.75;5022132;28;20064;-80
2022/01/27 07:06:55;;;;;;;34.80;16.10;;;;;;;1.68;100.00;98230.97;5032110;28;20084;-81
2022/01/27 07:09:22;;;;;;;36.95;17.52;;;;;;;1.62;100.00;98234.63;5013390;28;20057;-79
2022/01/27 07:11:48;;;;;;;41.80;18.67;;;;;;;1.57;100.00;98241.72;5013535;28;20046;-80
2022/01/27 07:14:15;;;;;;;40.60;18.48;;;;;;;1.50;100.00;98251.72;5013607;28;20127;-81
2022/01/27 07:16:43;;;;;;;45.17;20.15;;;;;;;1.47;100.00;98236.22;5017063;28;20053;-81
2022/01/27 07:19:09;;;;;;;33.35;16.75;;;;;;;1.39;100.00;98233.97;5032396;28;20053;-80
2022/01/27 07:21:36;;;;;;;37.85;17.10;;;;;;;1.25;100.00;98234.25;5033177;28;20103;-79
2022/01/27 07:24:03;;;;;;;39.15;18.48;;;;;;;1.39;100.00;98250.78;5031126;28;20060;-80
2022/01/27 07:26:30;;;;;;;40.35;18.20;;;;;;;1.45;100.00;98254.31;5033720;28;20068;-80
2022/01/27 07:33:01;;;;;;;41.13;18.35;;;;;;;1.12;100.00;98213.22;5033959;28;20427;-80
2022/01/27 07:36:28;;;;;;;38.83;17.65;;;;;;;1.12;100.00;98196.41;4973996;28;20424;-80
2022/01/27 07:39:01;;;;;;;36.38;16.00;;;;;;;1.21;100.00;98227.00;5011139;23;20046;-83
2022/01/27 07:41:30;;;;;;;35.35;16.73;;;;;;;1.22;100.00;98210.72;5006479;28;20055;-84
2022/01/27 07:44:34;;;;;;;32.95;15.60;;;;;;;1.27;100.00;98224.16;5018572;28;20176;-84
2022/01/27 07:47:04;;;;;;;39.05;17.48;;;;;;;1.33;100.00;98218.91;5016059;28;20085;-84
2022/01/27 07:49:33;;;;;;;33.60;16.33;;;;;;;1.23;100.00;98222.22;5024124;28;20084;-86
2022/01/27 07:52:03;;;;;;;37.83;17.40;;;;;;;1.34;100.00;98229.34;5023448;28;20034;-84
2022/01/27 07:54:32;;;;;;;40.00;17.67;;;;;;;1.48;100.00;98237.81;4991466;28;20108;-86
2022/01/27 07:57:12;;;;;;;34.58;16.42;;;;;;;1.50;100.00;98239.19;4990925;28;20133;-86
2022/01/27 07:59:42;;;;;;;38.38;17.58;;;;;;;1.30;100.00;98208.72;4995181;28;20111;-83
2022/01/27 08:02:22;;;;;;;42.13;17.92;;;;;;;1.24;100.00;98191.81;4949721;29;20064;-85
2022/01/27 08:04:55;;;;;;;39.28;17.88;;;;;;;1.39;100.00;98201.94;4938881;29;20086;-84
2022/01/27 08:07:24;;;;;;;37.80;17.55;;;;;;;1.23;100.00;98159.03;4939006;28;20623;-84
2022/01/27 08:09:54;;;;;;;36.58;16.27;;;;;;;1.62;100.00;98207.94;4954042;29;20074;-85
2022/01/27 08:12:23;;;;;;;40.10;16.77;;;;;;;1.75;100.00;98204.94;4932439;29;20051;-84
2022/01/27 08:14:52;;;;;;;36.25;16.50;;;;;;;1.62;100.00;98175.91;4943256;28;20118;-85
2022/01/27 08:17:22;;;;;;;39.65;17.42;;;;;;;1.76;100.00;98192.38;4938185;29;20051;-83
2022/01/27 08:19:51;;;;;;;35.97;16.25;;;;;;;1.78;100.00;98169.72;4935837;29;20055;-85
2022/01/27 08:22:21;;;;;;;38.78;18.10;;;;;;;1.77;100.00;98162.78;4936603;29;20547;-82
2022/01/27 08:24:54;;;;;;;36.58;16.67;;;;;;;1.82;100.00;98167.38;4936001;29;20086;-82
2022/01/27 08:27:28;;;;;;;38.67;16.85;;;;;;;1.72;100.00;98145.91;4931462;29;20062;-83
2022/01/27 08:30:03;;;;;;;37.35;16.23;;;;;;;1.86;100.00;98171.16;4935456;28;20059;-84
2022/01/27 08:33:20;;;;;;;34.47;17.03;;;;;;;1.85;100.00;98158.91;4947585;28;20045;-84
2022/01/27 08:35:23;;;;;;;33.05;14.88;;;;;;;1.77;100.00;98121.94;4992942;28;20054;-82
2022/01/27 08:37:56;;;;;;;42.83;17.15;;;;;;;1.97;100.00;98150.75;5015292;28;20132;-81
2022/01/27 08:40:26;;;;;;;37.67;17.92;;;;;;;2.13;100.00;98141.91;5014336;28;20499;-85
2022/01/27 08:43:11;;;;;;;34.40;15.82;;;;;;;1.96;100.00;98149.97;5014737;28;20515;-83
2022/01/27 08:45:39;;;;;;;39.47;16.02;;;;;;;2.24;100.00;98130.28;5015746;28;20045;-81
2022/01/27 08:48:14;;;;;;;40.00;16.83;;;;;;;2.39;100.00;98127.78;5014588;28;20138;-85
2022/01/27 08:51:10;;;;;;;34.13;15.07;;;;;;;2.46;100.00;98110.50;5014532;28;20068;-83
2022/01/27 08:53:49;;;;;;;40.42;17.80;;;;;;;2.79;100.00;98111.34;4981216;28;20078;-84
2022/01/27 08:56:19;;;;;;;42.35;18.10;;;;;;;3.12;100.00;98119.16;4994209;28;20100;-86
2022/01/27 08:58:52;;;;;;;33.10;15.88;;;;;;;3.11;100.00;98122.91;4976702;28;20073;-83
2022/01/27 09:01:24;;;;;;;37.00;16.27;;;;;;;2.95;100.00;98129.97;4996211;28;20047;-81
2022/01/27 09:03:56;;;;;;;36.60;16.33;;;;;;;2.59;100.00;98117.31;5003919;28;20398;-84
2022/01/27 09:06:28;;;;;;;35.72;16.48;;;;;;;2.80;100.00;98129.84;5004287;28;20046;-83
2022/01/27 09:09:05;;;;;;;33.33;15.00;;;;;;;2.81;100.00;98144.81;4983597;28;20499;-81
2022/01/27 09:11:35;;;;;;;35.70;15.85;;;;;;;3.24;100.00;98151.09;5000621;28;20092;-82
2022/01/27 09:14:05;;;;;;;35.13;16.30;;;;;;;2.55;100.00;98132.25;5005626;28;20046;-83
2022/01/27 09:16:35;;;;;;;42.47;17.80;;;;;;;2.55;100.00;98142.94;4989604;28;20049;-82
2022/01/27 09:19:25;;;;;;;39.28;17.27;;;;;;;2.47;100.00;98112.13;4992711;28;20058;-83
2022/01/27 09:21:58;;;;;;;39.38;18.38;;;;;;;2.53;100.00;98125.56;4993443;28;20759;-83
2022/01/27 09:24:36;;;;;;;39.40;17.92;;;;;;;2.47;100.00;98130.03;4997778;28;20046;-84
2022/01/27 09:27:06;;;;;;;37.30;16.83;;;;;;;2.38;100.00;98118.97;4997259;28;20117;-83
2022/01/27 09:29:36;;;;;;;40.25;17.17;;;;;;;2.41;100.00;98120.31;4980899;28;20506;-82
2022/01/27 09:32:05;;;;;;;40.83;17.85;;;;;;;2.62;100.00;98142.72;5014700;28;20046;-83
2022/01/27 09:34:49;;;;;;;36.22;16.83;;;;;;;2.62;100.00;98113.34;4958457;28;20055;-83
2022/01/27 09:37:19;;;;;;;39.70;17.92;;;;;;;3.01;100.00;98131.63;4947268;29;20051;-84
2022/01/27 09:39:48;;;;;;;38.78;16.70;;;;;;;2.76;100.00;98122.56;4944385;28;20063;-83
2022/01/27 09:42:17;;;;;;;37.75;17.30;;;;;;;2.45;100.00;98108.09;4947437;29;20160;-82
2022/01/27 09:44:52;;;;;;;38.15;17.58;;;;;;;2.43;100.00;98119.03;4942881;29;20417;-83
2022/01/27 09:47:29;;;;;;;41.37;18.60;;;;;;;2.35;100.00;98094.59;4948341;29;20195;-83
2022/01/27 09:50:07;;;;;;;39.03;16.35;;;;;;;2.30;100.00;98111.38;4940337;29;20094;-83
2022/01/27 09:52:36;;;;;;;39.97;17.30;;;;;;;2.27;100.00;98103.88;4958372;29;20085;-83
2022/01/27 09:55:05;;;;;;;40.83;16.95;;;;;;;2.16;100.00;98090.66;4954190;28;20062;-81
2022/01/27 09:57:39;;;;;;;43.10;17.55;;;;;;;2.18;100.00;98100.03;4953609;28;20081;-82
2022/01/27 10:00:09;;;;;;;43.38;18.95;;;;;;;2.26;100.00;98112.97;4953111;28;20047;-83
2022/01/27 10:02:39;;;;;;;44.97;18.75;;;;;;;2.28;100.00;98120.72;4954310;28;20047;-82
2022/01/27 10:05:18;;;;;;;;;;;;;;;;;;;;;
2022/01/27 10:07:51;;;;;;;41.92;18.90;;;;;;;2.34;100.00;98112.53;5019822;28;20069;-83
2022/01/27 10:10:38;;;;;;;42.15;18.20;;;;;;;2.39;100.00;98107.22;5000210;28;20596;-83
2022/01/27 10:13:10;;;;;;;39.47;17.85;;;;;;;2.26;100.00;98080.09;4996913;28;20046;-83
2022/01/27 10:15:46;;;;;;;41.17;17.08;;;;;;;2.34;100.00;98080.47;4999514;28;20038;-83
2022/01/27 10:18:22;;;;;;;43.40;18.85;;;;;;;2.46;100.00;98074.97;5010461;28;20034;-83
2022/01/27 10:21:06;;;;;;;42.53;17.88;;;;;;;2.44;100.00;98051.19;4990654;28;20120;-84
2022/01/27 10:23:43;;;;;;;36.47;15.95;;;;;;;2.46;100.00;98057.06;4988678;28;20046;-83
2022/01/27 10:26:22;;;;;;;43.85;18.02;;;;;;;2.37;100.00;98061.28;4994101;28;20053;-83
2022/01/27 10:29:05;;;;;;;;;;;;;;;;;;;;;
2022/01/27 10:31:28;;;;;;;41.22;18.02;;;;;;;2.43;100.00;98060.25;5019639;28;20042;-82
2022/01/27 10:34:02;;;;;;;38.13;17.38;;;;;;;2.39;100.00;98067.16;5001477;28;20418;-82
2022/01/27 10:36:40;;;;;;;39.30;17.83;;;;;;;2.42;100.00;98068.53;5016550;28;20053;-82
2022/01/27 10:39:25;;;;;;;41.72;17.92;;;;;;;2.32;100.00;98060.41;5017623;28;20049;-84
2022/01/27 10:42:00;;;;;;;47.03;18.27;;;;;;;2.53;100.00;98064.09;5036902;28;20065;-81
2022/01/27 10:44:47;;;;;;;43.10;18.92;;;;;;;2.53;100.00;98064.88;5018988;28;20034;-82
2022/01/27 10:47:24;;;;;;;45.97;19.33;;;;;;;2.47;100.00;98066.72;4989250;28;20520;-81
2022/01/27 10:50:03;;;;;;;42.40;18.50;;;;;;;2.43;100.00;98049.56;4999934;28;20256;-84
2022/01/27 10:52:38;;;;;;;44.90;18.48;;;;;;;2.42;100.00;98061.31;4980813;28;20105;-81
2022/01/27 10:55:10;;;;;;;43.10;16.65;;;;;;;2.40;100.00;98034.03;4983534;28;20104;-86
2022/01/27 10:57:37;;;;;;;41.80;17.90;;;;;;;2.56;100.00;98050.19;5009306;28;20054;-84
2022/01/27 11:00:14;;;;;;;40.85;18.25;;;;;;;2.51;100.00;98054.44;4998239;28;20030;-83
2022/01/27 11:02:59;;;;;;;43.88;18.23;;;;;;;2.47;100.00;98063.22;5016454;28;20113;-84
2022/01/27 11:05:29;;;;;;;35.67;16.13;;;;;;;2.38;100.00;98062.06;5014380;28;20106;-83
2022/01/27 11:07:57;;;;;;;44.08;18.80;;;;;;;2.43;100.00;98062.09;5034268;28;20045;-82
2022/01/27 11:10:26;;;;;;;38.47;18.02;;;;;;;2.41;100.00;98057.03;5032672;28;20076;-81
2022/01/27 11:12:53;;;;;;;45.95;18.23;;;;;;;2.48;100.00;98049.59;5035602;28;20097;-84
2022/01/27 11:15:21;;;;;;;45.75;18.20;;;;;;;2.54;100.00;98029.09;5033790;28;20056;-83
2022/01/27 11:17:49;;;;;;;42.38;17.92;;;;;;;2.62;100.00;98047.34;5026266;28;20073;-83
2022/01/27 11:26:11;;;;;;;;;;;;;;;2.55;100.00;98022.69;5015212;28;20042;-81
2022/01/27 11:28:42;;;;;;;43.00;17.92;;;;;;;2.59;100.00;98017.63;5006591;28;20497;-81
2022/01/27 11:31:25;;;;;;;43.25;17.55;;;;;;;2.58;100.00;98026.72;5023198;28;20046;-83
2022/01/27 11:33:59;;;;;;;41.00;16.17;;;;;;;2.35;100.00;98004.59;5002916;28;20046;-82
2022/01/27 11:36:26;;;;;;;43.38;17.50;;;;;;;2.35;100.00;98009.13;4998326;28;20138;-82
2022/01/27 11:38:52;;;;;;;40.95;17.30;;;;;;;2.42;100.00;98013.22;5015673;28;20050;-84
2022/01/27 11:41:38;;;;;;;40.78;16.98;;;;;;;2.48;100.00;98025.56;5027101;28;20045;-83
2022/01/27 11:44:32;;;;;;;44.03;17.83;;;;;;;2.47;100.00;98015.13;5026453;28;20034;-81
2022/01/27 11:47:08;;;;;;;42.47;17.08;;;;;;;2.64;100.00;98025.69;5013257;28;20029;-84
2022/01/27 11:50:07;;;;;;;46.63;18.08;;;;;;;2.59;100.00;98031.81;5011373;28;20046;-85
2022/01/27 11:52:47;;;;;;;40.90;17.13;;;;;;;2.38;100.00;98017.44;5009033;28;20046;-80
2022/01/27 11:55:25;;;;;;;45.20;18.17;;;;;;;2.64;100.00;98037.19;5029290;28;20050;-85
2022/01/27 11:57:57;;;;;;;44.45;18.58;;;;;;;2.66;100.00;98036.97;5006937;28;20109;-84
2022/01/27 12:00:27;;;;;;;44.90;18.48;;;;;;;2.64;100.00;98047.88;5003963;28;20045;-83
2022/01/27 12:03:04;;;;;;;41.40;17.15;;;;;;;2.53;100.00;98034.69;5000172;28;20084;-86
2022/01/27 12:05:33;;;;;;;51.72;18.25;;;;;;;2.35;100.00;98031.31;5017035;28;20514;-83
2022/01/27 12:08:12;;;;;;;39.58;16.70;;;;;;;2.40;100.00;98049.28;5016751;28;20058;-83
2022/01/27 12:10:46;;;;;;;41.35;17.33;;;;;;;2.36;100.00;98037.47;5016294;28;20050;-83
2022/01/27 12:13:25;;;;;;;48.45;19.50;;;;;;;2.53;100.00;98022.13;5011515;28;20054;-87
2022/01/27 12:19:01;;;;;;;42.78;17.17;;;;;;;2.40;100.00;98015.31;5003302;28;20042;-83
2022/01/27 12:21:38;;;;;;;45.00;18.08;;;;;;;2.44;100.00;98016.44;4986069;28;20100;-85
2022/01/27 12:24:12;;;;;;;45.30;17.90;;;;;;;2.56;100.00;98018.94;5000489;28;20092;-84
2022/01/27 12:27:01;;;;;;;45.10;18.25;;;;;;;2.47;100.00;98001.78;5005567;28;20395;-85
2022/01/27 12:29:39;;;;;;;41.67;16.77;;;;;;;2.79;100.00;98007.09;4998527;28;20054;-85